Shokyu Maru — JG5288 — position and weather

sailwx.info

Track history (hours):
 
Tides and Currents Weather Stations Pressure Air Temp Water Temp Dewpoint Dewpoint Depression Visibility Wind Speed Wind Dir Waves Ship Positions

Shokyu Maru

Last reported at 2016-Jun-30 22:32 UTC. Time now 2016-Jun-30 23:11 UTC.
Position N 35°36' E 139°55'.

Length 91 m; draft 5.2 m.

Type: Ship. MMSI: 431000253.

Date/timePositionNaut miles runAvg speedWind from/ knotsBaromVisibWave heightAir tempDewpointWater temp
2016-Jun-30 22:32N 35°36' E 139°55'0 0.0
2016-Jun-30 21:29N 35°36' E 139°55'0 0.0
2016-Jun-30 20:32N 35°36' E 139°55'0 0.0
2016-Jun-30 19:26N 35°36' E 139°55'0 0.0
2016-Jun-30 18:26N 35°36' E 139°55'0 0.0
2016-Jun-30 17:32N 35°36' E 139°55'0 0.0
2016-Jun-30 16:29N 35°36' E 139°55'0 0.0
2016-Jun-30 15:32N 35°36' E 139°55'0 0.0
2016-Jun-30 14:32N 35°36' E 139°55'0 0.0
2016-Jun-30 13:32N 35°36' E 139°55'0 0.0
2016-Jun-30 12:32N 35°36' E 139°55'0 0.0
2016-Jun-30 11:32N 35°36' E 139°55'0 0.0
2016-Jun-30 10:32N 35°36' E 139°55'7 7.2
2016-Jun-30 09:33N 35°30' E 139°49'10 9.9
2016-Jun-30 08:34N 35°23' E 139°41'2 1.5
2016-Jun-30 07:32N 35°24' E 139°40'0 0.0
2016-Jun-30 06:32N 35°24' E 139°40'0 0.0
2016-Jun-30 05:32N 35°24' E 139°40'0 0.0
2016-Jun-30 04:32N 35°24' E 139°40'4 4.6
2016-Jun-30 03:33N 35°26' E 139°45'1110.7
2016-Jun-30 02:33N 35°33' E 139°54'7 7.1
2016-Jun-30 01:31N 35°41' E 139°56'0 0.0
2016-Jun-30 00:25N 35°41' E 139°56'0 0.0
2016-Jun-29 23:31N 35°41' E 139°56'0 0.0
2016-Jun-29 22:31N 35°41' E 139°56'2 2.1
2016-Jun-29 21:33N 35°39' E 139°58'4 4.1
2016-Jun-29 20:32N 35°36' E 139°55'0 0.0
2016-Jun-29 19:32N 35°36' E 139°55'0 0.0
2016-Jun-29 18:23N 35°36' E 139°55'0 0.0
2016-Jun-29 17:32N 35°36' E 139°55'0 0.0
2016-Jun-29 16:29N 35°36' E 139°55'0 0.0
2016-Jun-29 15:32N 35°36' E 139°55'0 0.0
2016-Jun-29 14:29N 35°36' E 139°55'0 0.0
2016-Jun-29 13:23N 35°36' E 139°55'0 0.0
2016-Jun-29 12:32N 35°36' E 139°55'0 0.0
2016-Jun-29 11:32N 35°36' E 139°55'6 6.0
2016-Jun-29 10:33N 35°31' E 139°50'1010.0
2016-Jun-29 09:33N 35°24' E 139°42'2 1.8
2016-Jun-29 08:32N 35°24' E 139°40'0 0.0
2016-Jun-29 07:32N 35°24' E 139°40'0 0.0
2016-Jun-29 06:32N 35°24' E 139°40'0 0.0
2016-Jun-29 05:32N 35°24' E 139°40'2 2.2
2016-Jun-29 04:34N 35°24' E 139°42'1111.2
2016-Jun-29 03:33N 35°32' E 139°52'9 9.2
2016-Jun-29 02:33N 35°40' E 139°57'1 0.7
2016-Jun-29 01:32N 35°41' E 139°56'0 0.0
2016-Jun-29 00:26N 35°41' E 139°56'0 0.0
2016-Jun-28 23:26N 35°41' E 139°56'0 0.0
2016-Jun-28 22:32N 35°41' E 139°56'1 1.5
2016-Jun-28 21:32N 35°39' E 139°58'4 4.4
2016-Jun-28 20:32N 35°36' E 139°55'0 0.0
2016-Jun-28 19:32N 35°36' E 139°55'0 0.0
2016-Jun-28 18:32N 35°36' E 139°55'0 0.0
2016-Jun-28 17:32N 35°36' E 139°55'0 0.0
2016-Jun-28 16:32N 35°36' E 139°55'0 0.0
2016-Jun-28 15:32N 35°36' E 139°55'0 0.0
2016-Jun-28 14:32N 35°36' E 139°55'1 1.5
2016-Jun-28 13:33N 35°35' E 139°54'10 9.9
2016-Jun-28 12:33N 35°27' E 139°46'6 5.7
2016-Jun-28 11:33N 35°24' E 139°40'0 0.0
2016-Jun-28 10:33N 35°24' E 139°40'0 0.0
2016-Jun-28 09:33N 35°24' E 139°40'0 0.0
2016-Jun-28 08:33N 35°24' E 139°40'0 0.0
2016-Jun-28 07:33N 35°24' E 139°40'0 0.5
2016-Jun-28 06:33N 35°24' E 139°39'11 5.4
2016-Jun-28 04:33N 35°30' E 139°51'9 9.3
2016-Jun-28 03:33N 35°37' E 139°58'4 3.4
2016-Jun-28 02:30N 35°41' E 139°56'0 0.0
2016-Jun-28 01:33N 35°41' E 139°56'0 0.0
2016-Jun-28 00:24N 35°41' E 139°56'0 0.0
2016-Jun-27 23:33N 35°41' E 139°56'0 0.0
2016-Jun-27 22:24N 35°41' E 139°56'4 5.2
2016-Jun-27 21:33N 35°36' E 139°56'1 0.6
2016-Jun-27 20:32N 35°36' E 139°55'0 0.0
2016-Jun-27 19:32N 35°36' E 139°55'0 0.1
2016-Jun-27 18:32N 35°36' E 139°55'0 0.0
2016-Jun-27 17:32N 35°36' E 139°55'0 0.0
2016-Jun-27 16:32N 35°36' E 139°55'0 0.1
2016-Jun-27 15:32N 35°36' E 139°55'0 0.0
2016-Jun-27 14:32N 35°36' E 139°55'0 0.0
2016-Jun-27 13:32N 35°36' E 139°55'0 0.0
2016-Jun-27 12:29N 35°36' E 139°55'0 0.0
2016-Jun-27 11:32N 35°36' E 139°55'0 0.0
2016-Jun-27 10:29N 35°36' E 139°55'0 0.1
2016-Jun-27 09:32N 35°36' E 139°55'0 0.1
2016-Jun-27 08:33N 35°36' E 139°55'9 8.7
2016-Jun-27 07:33N 35°29' E 140°01'0 0.1
2016-Jun-27 06:31N 35°29' E 140°01'0 0.0
2016-Jun-27 04:31N 35°29' E 140°01'0 0.0
2016-Jun-27 03:31N 35°29' E 140°01'0 0.0
2016-Jun-27 02:07N 35°29' E 140°01'0 0.0
2016-Jun-27 01:28N 35°29' E 140°01'2 2.6
2016-Jun-27 00:33N 35°30' E 139°58'0 0.0
2016-Jun-26 23:33N 35°30' E 139°58'0 0.0
2016-Jun-26 22:30N 35°30' E 139°58'0 0.0
2016-Jun-26 21:33N 35°30' E 139°58'0 0.0
2016-Jun-26 20:33N 35°30' E 139°58'0 0.0
2016-Jun-26 19:33N 35°30' E 139°58'0 0.0
2016-Jun-26 18:33N 35°30' E 139°58'0 0.0
2016-Jun-26 17:33N 35°30' E 139°58'0 0.0
2016-Jun-26 16:33N 35°30' E 139°58'0 0.1
2016-Jun-26 15:33N 35°30' E 139°58'0 0.0
2016-Jun-26 14:33N 35°30' E 139°58'0 0.1
2016-Jun-26 13:33N 35°30' E 139°58'8 8.0
2016-Jun-26 12:33N 35°38' E 139°59'3 3.0
2016-Jun-26 11:32N 35°41' E 139°56'0 0.0
2016-Jun-26 10:26N 35°41' E 139°56'0 0.0
2016-Jun-26 09:32N 35°41' E 139°56'0 0.0
2016-Jun-26 08:32N 35°41' E 139°56'0 0.0
2016-Jun-26 07:32N 35°41' E 139°56'4 3.6
2016-Jun-26 06:33N 35°37' E 139°58'1010.4
2016-Jun-26 05:34N 35°30' E 139°49'10 9.6
2016-Jun-26 04:33N 35°24' E 139°40'1 1.0
2016-Jun-26 03:31N 35°24' E 139°40'0 0.0
2016-Jun-26 02:31N 35°24' E 139°40'0 0.0
2016-Jun-26 01:31N 35°24' E 139°40'0 0.0
2016-Jun-26 00:28N 35°24' E 139°40'0 0.0
2016-Jun-25 23:31N 35°24' E 139°40'4 3.8
2016-Jun-25 22:33N 35°25' E 139°44'1110.8
2016-Jun-25 21:33N 35°33' E 139°54'9 8.8
2016-Jun-25 20:31N 35°41' E 139°59'0 0.0
2016-Jun-25 19:31N 35°41' E 139°59'0 0.0
2016-Jun-25 18:31N 35°41' E 139°59'0 0.0
2016-Jun-25 17:28N 35°41' E 139°59'0 0.0
2016-Jun-25 16:31N 35°41' E 139°59'0 0.0
2016-Jun-25 15:31N 35°41' E 139°59'0 0.0
2016-Jun-25 14:31N 35°41' E 139°59'0 0.0
2016-Jun-25 13:31N 35°41' E 139°59'0 0.0
2016-Jun-25 12:31N 35°41' E 139°59'0 0.0
2016-Jun-25 11:28N 35°41' E 139°59'0 0.0
2016-Jun-25 10:22N 35°41' E 139°59'0 0.0
2016-Jun-25 09:28N 35°41' E 139°59'0 0.0
2016-Jun-25 08:10N 35°41' E 139°59'0 0.0
2016-Jun-25 07:25N 35°41' E 139°59'0 0.0
2016-Jun-25 06:28N 35°41' E 139°59'0 0.0
2016-Jun-25 05:28N 35°41' E 139°59'1 1.5
2016-Jun-25 04:33N 35°39' E 139°59'10 9.9
2016-Jun-25 03:33N 35°32' E 139°51'1110.9
2016-Jun-25 02:33N 35°24' E 139°42'1 1.5
2016-Jun-25 01:33N 35°25' E 139°43'9 8.2
2016-Jun-25 00:29N 35°31' E 139°51'0 0.0
2016-Jun-24 23:29N 35°31' E 139°51'0 0.0
2016-Jun-24 22:29N 35°31' E 139°51'1 1.5
2016-Jun-24 21:34N 35°30' E 139°51'3 2.9
2016-Jun-24 20:33N 35°29' E 139°54'0 0.0
2016-Jun-24 19:32N 35°29' E 139°54'0 0.0
2016-Jun-24 18:34N 35°29' E 139°54'0 0.0
2016-Jun-24 17:31N 35°29' E 139°54'0 0.0
2016-Jun-24 16:31N 35°29' E 139°54'0 0.1
2016-Jun-24 15:31N 35°29' E 139°54'0 0.0
2016-Jun-24 14:31N 35°29' E 139°54'0 0.1
2016-Jun-24 13:31N 35°29' E 139°54'0 0.0
2016-Jun-24 12:31N 35°29' E 139°54'0 0.0
2016-Jun-24 11:31N 35°29' E 139°54'0 0.0
2016-Jun-24 10:31N 35°29' E 139°54'0 0.0
2016-Jun-24 09:31N 35°29' E 139°54'0 0.1
2016-Jun-24 08:31N 35°29' E 139°54'0 0.0
2016-Jun-24 07:31N 35°29' E 139°54'4 1.3
2016-Jun-24 04:33N 35°29' E 139°49'1010.5
2016-Jun-24 03:33N 35°37' E 139°57'4 2.7
2016-Jun-24 02:04N 35°41' E 139°56'0 0.0
2016-Jun-24 01:22N 35°41' E 139°56'0 0.0
2016-Jun-24 00:28N 35°41' E 139°56'0 0.0
2016-Jun-23 23:28N 35°41' E 139°56'1 1.2
2016-Jun-23 22:33N 35°40' E 139°57'4 4.1
2016-Jun-23 21:29N 35°36' E 139°55'0 0.0
2016-Jun-23 20:23N 35°36' E 139°55'0 0.0
2016-Jun-23 19:32N 35°36' E 139°55'0 0.1
2016-Jun-23 18:34N 35°36' E 139°55'0 0.0
2016-Jun-23 17:33N 35°36' E 139°55'0 0.0
2016-Jun-23 16:33N 35°36' E 139°55'0 0.1
2016-Jun-23 15:33N 35°36' E 139°55'8 8.0
2016-Jun-23 14:33N 35°31' E 140°03'0 0.1
2016-Jun-23 13:32N 35°31' E 140°03'0 0.0
2016-Jun-23 12:26N 35°31' E 140°03'0 0.0
2016-Jun-23 11:32N 35°31' E 140°03'0 0.0
2016-Jun-23 10:32N 35°31' E 140°03'0 0.0
2016-Jun-23 09:32N 35°31' E 140°03'0 0.0
2016-Jun-23 08:32N 35°31' E 140°03'0 0.0
2016-Jun-23 07:23N 35°31' E 140°03'7 3.6
2016-Jun-23 05:33N 35°37' E 139°59'4 4.1
2016-Jun-23 04:29N 35°41' E 139°56'0 0.0
2016-Jun-23 03:29N 35°41' E 139°56'0 0.0
2016-Jun-23 02:23N 35°41' E 139°56'0 0.0
2016-Jun-23 01:23N 35°41' E 139°56'0 0.1
2016-Jun-23 00:26N 35°40' E 139°56'4 4.9
2016-Jun-22 23:34N 35°36' E 139°56'0 0.3
2016-Jun-22 22:32N 35°36' E 139°55'0 0.0
2016-Jun-22 21:32N 35°36' E 139°55'0 0.0
2016-Jun-22 20:32N 35°36' E 139°55'0 0.0
2016-Jun-22 19:32N 35°36' E 139°55'0 0.0
2016-Jun-22 18:29N 35°36' E 139°55'0 0.0
2016-Jun-22 17:32N 35°36' E 139°55'0 0.0
2016-Jun-22 16:29N 35°36' E 139°55'0 0.1
2016-Jun-22 15:29N 35°36' E 139°55'0 0.1
2016-Jun-22 14:32N 35°36' E 139°55'0 0.0
2016-Jun-22 13:32N 35°36' E 139°55'0 0.0
2016-Jun-22 12:32N 35°36' E 139°55'0 0.0
2016-Jun-22 11:32N 35°36' E 139°55'0 0.0
2016-Jun-22 10:32N 35°36' E 139°55'1 1.4
2016-Jun-22 09:33N 35°35' E 139°56'7 6.0
2016-Jun-22 08:26N 35°30' E 140°02'0 0.0
2016-Jun-22 07:32N 35°30' E 140°02'0 0.0
2016-Jun-22 06:32N 35°30' E 140°02'0 0.0
2016-Jun-22 05:32N 35°30' E 140°02'1 1.2
2016-Jun-22 04:33N 35°31' E 140°01'7 7.0
2016-Jun-22 03:33N 35°37' E 139°57'4 3.2
2016-Jun-22 02:24N 35°41' E 139°56'0 0.0
2016-Jun-22 01:30N 35°41' E 139°56'0 0.0
2016-Jun-22 00:30N 35°41' E 139°56'0 0.0
2016-Jun-21 23:30N 35°41' E 139°56'0 0.0
2016-Jun-21 22:30N 35°41' E 139°56'1 1.4
2016-Jun-21 21:33N 35°40' E 139°58'4 4.4
2016-Jun-21 20:33N 35°36' E 139°55'0 0.0
2016-Jun-21 19:32N 35°36' E 139°55'0 0.0
2016-Jun-21 18:30N 35°36' E 139°55'0 0.0
2016-Jun-21 17:30N 35°36' E 139°55'0 0.0
2016-Jun-21 16:33N 35°36' E 139°55'0 0.0
2016-Jun-21 15:33N 35°36' E 139°55'0 0.0
2016-Jun-21 14:30N 35°36' E 139°55'0 0.0
2016-Jun-21 13:33N 35°36' E 139°55'0 0.0
2016-Jun-21 12:33N 35°36' E 139°55'0 0.0
2016-Jun-21 11:33N 35°36' E 139°55'5 5.2
2016-Jun-21 10:33N 35°32' E 139°58'4 3.6
2016-Jun-21 09:25N 35°28' E 140°01'0 0.0
2016-Jun-21 08:25N 35°28' E 140°01'0 0.0
2016-Jun-21 07:31N 35°28' E 140°01'0 0.0
2016-Jun-21 04:31N 35°28' E 140°01'6 6.6
2016-Jun-21 03:34N 35°34' E 139°59'6 5.4
2016-Jun-21 02:22N 35°41' E 139°56'0 0.0
2016-Jun-21 01:28N 35°41' E 139°56'0 0.0
2016-Jun-21 00:22N 35°41' E 139°56'0 0.0
2016-Jun-20 23:22N 35°41' E 139°56'  
Track history (hours):
 
Tides and Currents Weather Stations Pressure Air Temp Water Temp Dewpoint Dewpoint Depression Visibility Wind Speed Wind Dir Waves Ship Positions

Shokyu Maru

Last reported at 2016-Jun-30 22:32 UTC. Time now 2016-Jun-30 23:11 UTC.
Position N 35°36' E 139°55'.

Length 91 m; draft 5.2 m.

Type: Ship. MMSI: 431000253.

Date/timePositionNaut miles runAvg speedWind from/ knotsBaromVisibWave heightAir tempDewpointWater temp
2016-Jun-30 22:32N 35°36' E 139°55'0 0.0
2016-Jun-30 21:29N 35°36' E 139°55'0 0.0
2016-Jun-30 20:32N 35°36' E 139°55'0 0.0
2016-Jun-30 19:26N 35°36' E 139°55'0 0.0
2016-Jun-30 18:26N 35°36' E 139°55'0 0.0
2016-Jun-30 17:32N 35°36' E 139°55'0 0.0
2016-Jun-30 16:29N 35°36' E 139°55'0 0.0
2016-Jun-30 15:32N 35°36' E 139°55'0 0.0
2016-Jun-30 14:32N 35°36' E 139°55'0 0.0
2016-Jun-30 13:32N 35°36' E 139°55'0 0.0
2016-Jun-30 12:32N 35°36' E 139°55'0 0.0
2016-Jun-30 11:32N 35°36' E 139°55'0 0.0
2016-Jun-30 10:32N 35°36' E 139°55'7 7.2
2016-Jun-30 09:33N 35°30' E 139°49'10 9.9
2016-Jun-30 08:34N 35°23' E 139°41'2 1.5
2016-Jun-30 07:32N 35°24' E 139°40'0 0.0
2016-Jun-30 06:32N 35°24' E 139°40'0 0.0
2016-Jun-30 05:32N 35°24' E 139°40'0 0.0
2016-Jun-30 04:32N 35°24' E 139°40'4 4.6
2016-Jun-30 03:33N 35°26' E 139°45'1110.7
2016-Jun-30 02:33N 35°33' E 139°54'7 7.1
2016-Jun-30 01:31N 35°41' E 139°56'0 0.0
2016-Jun-30 00:25N 35°41' E 139°56'0 0.0
2016-Jun-29 23:31N 35°41' E 139°56'0 0.0
2016-Jun-29 22:31N 35°41' E 139°56'2 2.1
2016-Jun-29 21:33N 35°39' E 139°58'4 4.1
2016-Jun-29 20:32N 35°36' E 139°55'0 0.0
2016-Jun-29 19:32N 35°36' E 139°55'0 0.0
2016-Jun-29 18:23N 35°36' E 139°55'0 0.0
2016-Jun-29 17:32N 35°36' E 139°55'0 0.0
2016-Jun-29 16:29N 35°36' E 139°55'0 0.0
2016-Jun-29 15:32N 35°36' E 139°55'0 0.0
2016-Jun-29 14:29N 35°36' E 139°55'0 0.0
2016-Jun-29 13:23N 35°36' E 139°55'0 0.0
2016-Jun-29 12:32N 35°36' E 139°55'0 0.0
2016-Jun-29 11:32N 35°36' E 139°55'6 6.0
2016-Jun-29 10:33N 35°31' E 139°50'1010.0
2016-Jun-29 09:33N 35°24' E 139°42'2 1.8
2016-Jun-29 08:32N 35°24' E 139°40'0 0.0
2016-Jun-29 07:32N 35°24' E 139°40'0 0.0
2016-Jun-29 06:32N 35°24' E 139°40'0 0.0
2016-Jun-29 05:32N 35°24' E 139°40'2 2.2
2016-Jun-29 04:34N 35°24' E 139°42'1111.2
2016-Jun-29 03:33N 35°32' E 139°52'9 9.2
2016-Jun-29 02:33N 35°40' E 139°57'1 0.7
2016-Jun-29 01:32N 35°41' E 139°56'0 0.0
2016-Jun-29 00:26N 35°41' E 139°56'0 0.0
2016-Jun-28 23:26N 35°41' E 139°56'0 0.0
2016-Jun-28 22:32N 35°41' E 139°56'1 1.5
2016-Jun-28 21:32N 35°39' E 139°58'4 4.4
2016-Jun-28 20:32N 35°36' E 139°55'0 0.0
2016-Jun-28 19:32N 35°36' E 139°55'0 0.0
2016-Jun-28 18:32N 35°36' E 139°55'0 0.0
2016-Jun-28 17:32N 35°36' E 139°55'0 0.0
2016-Jun-28 16:32N 35°36' E 139°55'0 0.0
2016-Jun-28 15:32N 35°36' E 139°55'0 0.0
2016-Jun-28 14:32N 35°36' E 139°55'1 1.5
2016-Jun-28 13:33N 35°35' E 139°54'10 9.9
2016-Jun-28 12:33N 35°27' E 139°46'6 5.7
2016-Jun-28 11:33N 35°24' E 139°40'0 0.0
2016-Jun-28 10:33N 35°24' E 139°40'0 0.0
2016-Jun-28 09:33N 35°24' E 139°40'0 0.0
2016-Jun-28 08:33N 35°24' E 139°40'0 0.0
2016-Jun-28 07:33N 35°24' E 139°40'0 0.5
2016-Jun-28 06:33N 35°24' E 139°39'11 5.4
2016-Jun-28 04:33N 35°30' E 139°51'9 9.3
2016-Jun-28 03:33N 35°37' E 139°58'4 3.4
2016-Jun-28 02:30N 35°41' E 139°56'0 0.0
2016-Jun-28 01:33N 35°41' E 139°56'0 0.0
2016-Jun-28 00:24N 35°41' E 139°56'0 0.0
2016-Jun-27 23:33N 35°41' E 139°56'0 0.0
2016-Jun-27 22:24N 35°41' E 139°56'4 5.2
2016-Jun-27 21:33N 35°36' E 139°56'1 0.6
2016-Jun-27 20:32N 35°36' E 139°55'0 0.0
2016-Jun-27 19:32N 35°36' E 139°55'0 0.1
2016-Jun-27 18:32N 35°36' E 139°55'0 0.0
2016-Jun-27 17:32N 35°36' E 139°55'0 0.0
2016-Jun-27 16:32N 35°36' E 139°55'0 0.1
2016-Jun-27 15:32N 35°36' E 139°55'0 0.0
2016-Jun-27 14:32N 35°36' E 139°55'0 0.0
2016-Jun-27 13:32N 35°36' E 139°55'0 0.0
2016-Jun-27 12:29N 35°36' E 139°55'0 0.0
2016-Jun-27 11:32N 35°36' E 139°55'0 0.0
2016-Jun-27 10:29N 35°36' E 139°55'0 0.1
2016-Jun-27 09:32N 35°36' E 139°55'0 0.1
2016-Jun-27 08:33N 35°36' E 139°55'9 8.7
2016-Jun-27 07:33N 35°29' E 140°01'0 0.1
2016-Jun-27 06:31N 35°29' E 140°01'0 0.0
2016-Jun-27 04:31N 35°29' E 140°01'0 0.0
2016-Jun-27 03:31N 35°29' E 140°01'0 0.0
2016-Jun-27 02:07N 35°29' E 140°01'0 0.0
2016-Jun-27 01:28N 35°29' E 140°01'2 2.6
2016-Jun-27 00:33N 35°30' E 139°58'0 0.0
2016-Jun-26 23:33N 35°30' E 139°58'0 0.0
2016-Jun-26 22:30N 35°30' E 139°58'0 0.0
2016-Jun-26 21:33N 35°30' E 139°58'0 0.0
2016-Jun-26 20:33N 35°30' E 139°58'0 0.0
2016-Jun-26 19:33N 35°30' E 139°58'0 0.0
2016-Jun-26 18:33N 35°30' E 139°58'0 0.0
2016-Jun-26 17:33N 35°30' E 139°58'0 0.0
2016-Jun-26 16:33N 35°30' E 139°58'0 0.1
2016-Jun-26 15:33N 35°30' E 139°58'0 0.0
2016-Jun-26 14:33N 35°30' E 139°58'0 0.1
2016-Jun-26 13:33N 35°30' E 139°58'8 8.0
2016-Jun-26 12:33N 35°38' E 139°59'3 3.0
2016-Jun-26 11:32N 35°41' E 139°56'0 0.0
2016-Jun-26 10:26N 35°41' E 139°56'0 0.0
2016-Jun-26 09:32N 35°41' E 139°56'0 0.0
2016-Jun-26 08:32N 35°41' E 139°56'0 0.0
2016-Jun-26 07:32N 35°41' E 139°56'4 3.6
2016-Jun-26 06:33N 35°37' E 139°58'1010.4
2016-Jun-26 05:34N 35°30' E 139°49'10 9.6
2016-Jun-26 04:33N 35°24' E 139°40'1 1.0
2016-Jun-26 03:31N 35°24' E 139°40'0 0.0
2016-Jun-26 02:31N 35°24' E 139°40'0 0.0
2016-Jun-26 01:31N 35°24' E 139°40'0 0.0
2016-Jun-26 00:28N 35°24' E 139°40'0 0.0
2016-Jun-25 23:31N 35°24' E 139°40'4 3.8
2016-Jun-25 22:33N 35°25' E 139°44'1110.8
2016-Jun-25 21:33N 35°33' E 139°54'9 8.8
2016-Jun-25 20:31N 35°41' E 139°59'0 0.0
2016-Jun-25 19:31N 35°41' E 139°59'0 0.0
2016-Jun-25 18:31N 35°41' E 139°59'0 0.0
2016-Jun-25 17:28N 35°41' E 139°59'0 0.0
2016-Jun-25 16:31N 35°41' E 139°59'0 0.0
2016-Jun-25 15:31N 35°41' E 139°59'0 0.0
2016-Jun-25 14:31N 35°41' E 139°59'0 0.0
2016-Jun-25 13:31N 35°41' E 139°59'0 0.0
2016-Jun-25 12:31N 35°41' E 139°59'0 0.0
2016-Jun-25 11:28N 35°41' E 139°59'0 0.0
2016-Jun-25 10:22N 35°41' E 139°59'0 0.0
2016-Jun-25 09:28N 35°41' E 139°59'0 0.0
2016-Jun-25 08:10N 35°41' E 139°59'0 0.0
2016-Jun-25 07:25N 35°41' E 139°59'0 0.0
2016-Jun-25 06:28N 35°41' E 139°59'0 0.0
2016-Jun-25 05:28N 35°41' E 139°59'1 1.5
2016-Jun-25 04:33N 35°39' E 139°59'10 9.9
2016-Jun-25 03:33N 35°32' E 139°51'1110.9
2016-Jun-25 02:33N 35°24' E 139°42'1 1.5
2016-Jun-25 01:33N 35°25' E 139°43'9 8.2
2016-Jun-25 00:29N 35°31' E 139°51'0 0.0
2016-Jun-24 23:29N 35°31' E 139°51'0 0.0
2016-Jun-24 22:29N 35°31' E 139°51'1 1.5
2016-Jun-24 21:34N 35°30' E 139°51'3 2.9
2016-Jun-24 20:33N 35°29' E 139°54'0 0.0
2016-Jun-24 19:32N 35°29' E 139°54'0 0.0
2016-Jun-24 18:34N 35°29' E 139°54'0 0.0
2016-Jun-24 17:31N 35°29' E 139°54'0 0.0
2016-Jun-24 16:31N 35°29' E 139°54'0 0.1
2016-Jun-24 15:31N 35°29' E 139°54'0 0.0
2016-Jun-24 14:31N 35°29' E 139°54'0 0.1
2016-Jun-24 13:31N 35°29' E 139°54'0 0.0
2016-Jun-24 12:31N 35°29' E 139°54'0 0.0
2016-Jun-24 11:31N 35°29' E 139°54'0 0.0
2016-Jun-24 10:31N 35°29' E 139°54'0 0.0
2016-Jun-24 09:31N 35°29' E 139°54'0 0.1
2016-Jun-24 08:31N 35°29' E 139°54'0 0.0
2016-Jun-24 07:31N 35°29' E 139°54'4 1.3
2016-Jun-24 04:33N 35°29' E 139°49'1010.5
2016-Jun-24 03:33N 35°37' E 139°57'4 2.7
2016-Jun-24 02:04N 35°41' E 139°56'0 0.0
2016-Jun-24 01:22N 35°41' E 139°56'0 0.0
2016-Jun-24 00:28N 35°41' E 139°56'0 0.0
2016-Jun-23 23:28N 35°41' E 139°56'1 1.2
2016-Jun-23 22:33N 35°40' E 139°57'4 4.1
2016-Jun-23 21:29N 35°36' E 139°55'0 0.0
2016-Jun-23 20:23N 35°36' E 139°55'0 0.0
2016-Jun-23 19:32N 35°36' E 139°55'0 0.1
2016-Jun-23 18:34N 35°36' E 139°55'0 0.0
2016-Jun-23 17:33N 35°36' E 139°55'0 0.0
2016-Jun-23 16:33N 35°36' E 139°55'0 0.1
2016-Jun-23 15:33N 35°36' E 139°55'8 8.0
2016-Jun-23 14:33N 35°31' E 140°03'0 0.1
2016-Jun-23 13:32N 35°31' E 140°03'0 0.0
2016-Jun-23 12:26N 35°31' E 140°03'0 0.0
2016-Jun-23 11:32N 35°31' E 140°03'0 0.0
2016-Jun-23 10:32N 35°31' E 140°03'0 0.0
2016-Jun-23 09:32N 35°31' E 140°03'0 0.0
2016-Jun-23 08:32N 35°31' E 140°03'0 0.0
2016-Jun-23 07:23N 35°31' E 140°03'7 3.6
2016-Jun-23 05:33N 35°37' E 139°59'4 4.1
2016-Jun-23 04:29N 35°41' E 139°56'0 0.0
2016-Jun-23 03:29N 35°41' E 139°56'0 0.0
2016-Jun-23 02:23N 35°41' E 139°56'0 0.0
2016-Jun-23 01:23N 35°41' E 139°56'0 0.1
2016-Jun-23 00:26N 35°40' E 139°56'4 4.9
2016-Jun-22 23:34N 35°36' E 139°56'0 0.3
2016-Jun-22 22:32N 35°36' E 139°55'0 0.0
2016-Jun-22 21:32N 35°36' E 139°55'0 0.0
2016-Jun-22 20:32N 35°36' E 139°55'0 0.0
2016-Jun-22 19:32N 35°36' E 139°55'0 0.0
2016-Jun-22 18:29N 35°36' E 139°55'0 0.0
2016-Jun-22 17:32N 35°36' E 139°55'0 0.0
2016-Jun-22 16:29N 35°36' E 139°55'0 0.1
2016-Jun-22 15:29N 35°36' E 139°55'0 0.1
2016-Jun-22 14:32N 35°36' E 139°55'0 0.0
2016-Jun-22 13:32N 35°36' E 139°55'0 0.0
2016-Jun-22 12:32N 35°36' E 139°55'0 0.0
2016-Jun-22 11:32N 35°36' E 139°55'0 0.0
2016-Jun-22 10:32N 35°36' E 139°55'1 1.4
2016-Jun-22 09:33N 35°35' E 139°56'7 6.0
2016-Jun-22 08:26N 35°30' E 140°02'0 0.0
2016-Jun-22 07:32N 35°30' E 140°02'0 0.0
2016-Jun-22 06:32N 35°30' E 140°02'0 0.0
2016-Jun-22 05:32N 35°30' E 140°02'1 1.2
2016-Jun-22 04:33N 35°31' E 140°01'7 7.0
2016-Jun-22 03:33N 35°37' E 139°57'4 3.2
2016-Jun-22 02:24N 35°41' E 139°56'0 0.0
2016-Jun-22 01:30N 35°41' E 139°56'0 0.0
2016-Jun-22 00:30N 35°41' E 139°56'0 0.0
2016-Jun-21 23:30N 35°41' E 139°56'0 0.0
2016-Jun-21 22:30N 35°41' E 139°56'1 1.4
2016-Jun-21 21:33N 35°40' E 139°58'4 4.4
2016-Jun-21 20:33N 35°36' E 139°55'0 0.0
2016-Jun-21 19:32N 35°36' E 139°55'0 0.0
2016-Jun-21 18:30N 35°36' E 139°55'0 0.0
2016-Jun-21 17:30N 35°36' E 139°55'0 0.0
2016-Jun-21 16:33N 35°36' E 139°55'0 0.0
2016-Jun-21 15:33N 35°36' E 139°55'0 0.0
2016-Jun-21 14:30N 35°36' E 139°55'0 0.0
2016-Jun-21 13:33N 35°36' E 139°55'0 0.0
2016-Jun-21 12:33N 35°36' E 139°55'0 0.0
2016-Jun-21 11:33N 35°36' E 139°55'5 5.2
2016-Jun-21 10:33N 35°32' E 139°58'4 3.6
2016-Jun-21 09:25N 35°28' E 140°01'0 0.0
2016-Jun-21 08:25N 35°28' E 140°01'0 0.0
2016-Jun-21 07:31N 35°28' E 140°01'0 0.0
2016-Jun-21 04:31N 35°28' E 140°01'6 6.6
2016-Jun-21 03:34N 35°34' E 139°59'6 5.4
2016-Jun-21 02:22N 35°41' E 139°56'0 0.0
2016-Jun-21 01:28N 35°41' E 139°56'0 0.0
2016-Jun-21 00:22N 35°41' E 139°56'0 0.0
2016-Jun-20 23:22N 35°41' E 139°56'  

Dump ship's entire track history